sensor_id;sensor_type;location;lat;lon;timestamp;P1;durP1;ratioP1;P2;durP2;ratioP2
39948;SDS011;29070;48.102;-1.652;2023-01-19T00:03:58;4.93;;;1.23;;
39948;SDS011;29070;48.102;-1.652;2023-01-19T00:08:58;3.70;;;0.85;;
39948;SDS011;29070;48.102;-1.652;2023-01-19T00:13:58;8.07;;;1.15;;
39948;SDS011;29070;48.102;-1.652;2023-01-19T00:18:59;3.07;;;0.80;;
39948;SDS011;29070;48.102;-1.652;2023-01-19T00:23:59;2.60;;;0.77;;
39948;SDS011;29070;48.102;-1.652;2023-01-19T00:28:59;4.03;;;0.90;;
39948;SDS011;29070;48.102;-1.652;2023-01-19T00:34:00;3.50;;;0.88;;
39948;SDS011;29070;48.102;-1.652;2023-01-19T00:39:01;3.70;;;1.90;;
39948;SDS011;29070;48.102;-1.652;2023-01-19T00:44:02;5.45;;;0.90;;
39948;SDS011;29070;48.102;-1.652;2023-01-19T00:49:02;3.40;;;1.02;;
39948;SDS011;29070;48.102;-1.652;2023-01-19T00:54:03;5.38;;;1.10;;
39948;SDS011;29070;48.102;-1.652;2023-01-19T00:59:04;5.35;;;1.15;;
39948;SDS011;29070;48.102;-1.652;2023-01-19T01:04:04;3.13;;;0.97;;
39948;SDS011;29070;48.102;-1.652;2023-01-19T01:09:04;4.25;;;0.98;;
39948;SDS011;29070;48.102;-1.652;2023-01-19T01:14:10;3.35;;;0.93;;
39948;SDS011;29070;48.102;-1.652;2023-01-19T01:19:13;2.17;;;1.10;;
39948;SDS011;29070;48.102;-1.652;2023-01-19T01:24:13;5.97;;;1.30;;
39948;SDS011;29070;48.102;-1.652;2023-01-19T01:29:15;8.07;;;1.23;;
39948;SDS011;29070;48.102;-1.652;2023-01-19T01:34:15;2.80;;;0.88;;
39948;SDS011;29070;48.102;-1.652;2023-01-19T01:39:16;2.95;;;1.02;;
39948;SDS011;29070;48.102;-1.652;2023-01-19T01:49:52;3.75;;;0.75;;
39948;SDS011;29070;48.102;-1.652;2023-01-19T01:54:59;5.78;;;1.20;;
39948;SDS011;29070;48.102;-1.652;2023-01-19T02:00:03;2.35;;;0.80;;
39948;SDS011;29070;48.102;-1.652;2023-01-19T02:05:09;6.78;;;0.98;;
39948;SDS011;29070;48.102;-1.652;2023-01-19T02:10:13;3.38;;;0.68;;
39948;SDS011;29070;48.102;-1.652;2023-01-19T02:15:32;2.97;;;0.38;;
39948;SDS011;29070;48.102;-1.652;2023-01-19T02:20:33;4.15;;;0.30;;
39948;SDS011;29070;48.102;-1.652;2023-01-19T02:25:35;0.70;;;0.30;;
39948;SDS011;29070;48.102;-1.652;2023-01-19T02:30:36;2.95;;;0.73;;
39948;SDS011;29070;48.102;-1.652;2023-01-19T02:35:40;2.67;;;0.50;;
39948;SDS011;29070;48.102;-1.652;2023-01-19T02:40:41;1.02;;;0.40;;
39948;SDS011;29070;48.102;-1.652;2023-01-19T02:45:44;3.60;;;0.50;;
39948;SDS011;29070;48.102;-1.652;2023-01-19T02:50:46;5.22;;;0.80;;
39948;SDS011;29070;48.102;-1.652;2023-01-19T02:55:55;2.70;;;1.17;;
39948;SDS011;29070;48.102;-1.652;2023-01-19T03:06:46;3.10;;;0.35;;
39948;SDS011;29070;48.102;-1.652;2023-01-19T03:12:09;3.35;;;0.80;;
39948;SDS011;29070;48.102;-1.652;2023-01-19T03:17:13;4.05;;;0.70;;
39948;SDS011;29070;48.102;-1.652;2023-01-19T03:22:21;2.92;;;0.55;;
39948;SDS011;29070;48.102;-1.652;2023-01-19T03:27:27;3.45;;;0.60;;
39948;SDS011;29070;48.102;-1.652;2023-01-19T03:32:31;1.50;;;0.50;;
39948;SDS011;29070;48.102;-1.652;2023-01-19T03:37:38;2.45;;;0.50;;
39948;SDS011;29070;48.102;-1.652;2023-01-19T03:42:42;2.27;;;0.50;;
39948;SDS011;29070;48.102;-1.652;2023-01-19T03:47:44;3.10;;;0.60;;
39948;SDS011;29070;48.102;-1.652;2023-01-19T03:52:44;2.05;;;0.50;;
39948;SDS011;29070;48.102;-1.652;2023-01-19T03:57:45;1.53;;;0.60;;
39948;SDS011;29070;48.102;-1.652;2023-01-19T04:02:45;3.00;;;0.60;;
39948;SDS011;29070;48.102;-1.652;2023-01-19T04:07:49;5.27;;;0.73;;
39948;SDS011;29070;48.102;-1.652;2023-01-19T04:12:55;2.10;;;0.75;;
39948;SDS011;29070;48.102;-1.652;2023-01-19T04:17:57;6.30;;;0.70;;
39948;SDS011;29070;48.102;-1.652;2023-01-19T04:22:59;4.13;;;0.75;;
39948;SDS011;29070;48.102;-1.652;2023-01-19T04:27:59;2.50;;;0.80;;
39948;SDS011;29070;48.102;-1.652;2023-01-19T04:33:00;4.65;;;0.80;;
39948;SDS011;29070;48.102;-1.652;2023-01-19T04:38:00;4.90;;;1.55;;
39948;SDS011;29070;48.102;-1.652;2023-01-19T04:43:00;4.50;;;0.75;;
39948;SDS011;29070;48.102;-1.652;2023-01-19T04:48:01;3.63;;;0.90;;
39948;SDS011;29070;48.102;-1.652;2023-01-19T04:53:03;6.15;;;1.45;;
39948;SDS011;29070;48.102;-1.652;2023-01-19T04:58:03;5.38;;;0.60;;
39948;SDS011;29070;48.102;-1.652;2023-01-19T05:03:04;3.28;;;0.85;;
39948;SDS011;29070;48.102;-1.652;2023-01-19T05:08:05;3.78;;;0.98;;
39948;SDS011;29070;48.102;-1.652;2023-01-19T05:13:05;2.47;;;0.82;;
39948;SDS011;29070;48.102;-1.652;2023-01-19T05:18:05;7.20;;;0.70;;
39948;SDS011;29070;48.102;-1.652;2023-01-19T05:23:06;5.63;;;1.13;;
39948;SDS011;29070;48.102;-1.652;2023-01-19T05:28:06;4.43;;;0.77;;
39948;SDS011;29070;48.102;-1.652;2023-01-19T05:33:06;6.53;;;0.90;;
39948;SDS011;29070;48.102;-1.652;2023-01-19T05:38:07;4.35;;;0.77;;
39948;SDS011;29070;48.102;-1.652;2023-01-19T05:43:07;3.90;;;0.93;;
39948;SDS011;29070;48.102;-1.652;2023-01-19T05:48:08;4.57;;;0.90;;
39948;SDS011;29070;48.102;-1.652;2023-01-19T05:53:08;6.73;;;0.77;;
39948;SDS011;29070;48.102;-1.652;2023-01-19T05:58:08;3.77;;;0.90;;
39948;SDS011;29070;48.102;-1.652;2023-01-19T06:03:09;4.88;;;0.88;;
39948;SDS011;29070;48.102;-1.652;2023-01-19T06:08:09;7.20;;;1.20;;
39948;SDS011;29070;48.102;-1.652;2023-01-19T06:13:09;7.53;;;1.45;;
39948;SDS011;29070;48.102;-1.652;2023-01-19T06:18:10;2.83;;;1.10;;
39948;SDS011;29070;48.102;-1.652;2023-01-19T06:23:11;3.97;;;0.80;;
39948;SDS011;29070;48.102;-1.652;2023-01-19T06:28:12;3.37;;;1.17;;
39948;SDS011;29070;48.102;-1.652;2023-01-19T06:33:12;4.53;;;1.50;;
39948;SDS011;29070;48.102;-1.652;2023-01-19T06:38:12;3.13;;;0.83;;
39948;SDS011;29070;48.102;-1.652;2023-01-19T06:43:13;4.35;;;1.15;;
39948;SDS011;29070;48.102;-1.652;2023-01-19T06:48:14;2.90;;;1.10;;
39948;SDS011;29070;48.102;-1.652;2023-01-19T06:53:15;3.15;;;1.20;;
39948;SDS011;29070;48.102;-1.652;2023-01-19T06:58:16;2.17;;;1.00;;
39948;SDS011;29070;48.102;-1.652;2023-01-19T07:03:18;4.00;;;0.83;;
39948;SDS011;29070;48.102;-1.652;2023-01-19T07:08:20;4.95;;;1.50;;
39948;SDS011;29070;48.102;-1.652;2023-01-19T07:13:20;4.43;;;1.90;;
39948;SDS011;29070;48.102;-1.652;2023-01-19T07:18:20;6.55;;;1.65;;
39948;SDS011;29070;48.102;-1.652;2023-01-19T07:23:21;5.50;;;1.60;;
39948;SDS011;29070;48.102;-1.652;2023-01-19T07:28:21;3.42;;;1.25;;
39948;SDS011;29070;48.102;-1.652;2023-01-19T07:33:22;6.80;;;1.58;;
39948;SDS011;29070;48.102;-1.652;2023-01-19T07:38:23;5.03;;;1.50;;
39948;SDS011;29070;48.102;-1.652;2023-01-19T07:43:24;4.47;;;1.35;;
39948;SDS011;29070;48.102;-1.652;2023-01-19T07:48:24;4.00;;;1.57;;
39948;SDS011;29070;48.102;-1.652;2023-01-19T07:53:25;6.20;;;1.60;;
39948;SDS011;29070;48.102;-1.652;2023-01-19T07:58:26;4.05;;;2.35;;
39948;SDS011;29070;48.102;-1.652;2023-01-19T08:03:26;6.47;;;1.70;;
39948;SDS011;29070;48.102;-1.652;2023-01-19T08:08:28;6.03;;;1.90;;
39948;SDS011;29070;48.102;-1.652;2023-01-19T08:13:29;4.65;;;1.58;;
39948;SDS011;29070;48.102;-1.652;2023-01-19T08:18:29;7.90;;;1.88;;
39948;SDS011;29070;48.102;-1.652;2023-01-19T08:23:29;4.57;;;1.87;;
39948;SDS011;29070;48.102;-1.652;2023-01-19T08:28:30;6.30;;;1.70;;
39948;SDS011;29070;48.102;-1.652;2023-01-19T08:33:31;4.53;;;1.75;;
39948;SDS011;29070;48.102;-1.652;2023-01-19T08:38:31;5.67;;;2.10;;
39948;SDS011;29070;48.102;-1.652;2023-01-19T08:43:32;11.25;;;3.10;;
39948;SDS011;29070;48.102;-1.652;2023-01-19T08:48:32;8.67;;;3.53;;
39948;SDS011;29070;48.102;-1.652;2023-01-19T08:53:32;11.33;;;3.80;;
39948;SDS011;29070;48.102;-1.652;2023-01-19T08:58:33;9.15;;;3.33;;
39948;SDS011;29070;48.102;-1.652;2023-01-19T09:03:34;6.00;;;2.33;;
39948;SDS011;29070;48.102;-1.652;2023-01-19T09:08:35;9.27;;;3.30;;
39948;SDS011;29070;48.102;-1.652;2023-01-19T09:13:35;4.47;;;2.00;;
39948;SDS011;29070;48.102;-1.652;2023-01-19T09:18:36;8.18;;;3.08;;
39948;SDS011;29070;48.102;-1.652;2023-01-19T09:23:37;6.93;;;2.80;;
39948;SDS011;29070;48.102;-1.652;2023-01-19T09:28:37;11.20;;;2.23;;
39948;SDS011;29070;48.102;-1.652;2023-01-19T09:33:37;9.32;;;2.20;;
39948;SDS011;29070;48.102;-1.652;2023-01-19T09:38:38;7.43;;;2.35;;
39948;SDS011;29070;48.102;-1.652;2023-01-19T09:43:40;4.65;;;1.75;;
39948;SDS011;29070;48.102;-1.652;2023-01-19T10:09:34;10.67;;;3.10;;
39948;SDS011;29070;48.102;-1.652;2023-01-19T10:14:48;8.52;;;3.15;;
39948;SDS011;29070;48.102;-1.652;2023-01-19T10:19:57;4.60;;;2.67;;
39948;SDS011;29070;48.102;-1.652;2023-01-19T10:25:02;7.25;;;2.55;;
39948;SDS011;29070;48.102;-1.652;2023-01-19T10:30:07;4.72;;;2.60;;
39948;SDS011;29070;48.102;-1.652;2023-01-19T10:35:15;6.22;;;2.80;;
39948;SDS011;29070;48.102;-1.652;2023-01-19T10:41:06;7.20;;;3.55;;
39948;SDS011;29070;48.102;-1.652;2023-01-19T10:45:49;11.82;;;3.05;;
39948;SDS011;29070;48.102;-1.652;2023-01-19T10:51:00;14.57;;;4.82;;
39948;SDS011;29070;48.102;-1.652;2023-01-19T10:56:24;11.77;;;3.83;;
39948;SDS011;29070;48.102;-1.652;2023-01-19T11:01:29;9.63;;;2.72;;
39948;SDS011;29070;48.102;-1.652;2023-01-19T11:06:34;10.95;;;3.33;;
39948;SDS011;29070;48.102;-1.652;2023-01-19T11:11:42;8.93;;;3.10;;
39948;SDS011;29070;48.102;-1.652;2023-01-19T11:16:46;9.82;;;3.40;;
39948;SDS011;29070;48.102;-1.652;2023-01-19T11:21:49;9.68;;;3.92;;
39948;SDS011;29070;48.102;-1.652;2023-01-19T11:26:53;7.22;;;2.95;;
39948;SDS011;29070;48.102;-1.652;2023-01-19T11:32:14;8.68;;;3.58;;
39948;SDS011;29070;48.102;-1.652;2023-01-19T11:37:28;15.13;;;3.30;;
39948;SDS011;29070;48.102;-1.652;2023-01-19T11:42:30;9.38;;;3.20;;
39948;SDS011;29070;48.102;-1.652;2023-01-19T11:47:45;10.80;;;3.08;;
39948;SDS011;29070;48.102;-1.652;2023-01-19T11:57:58;5.43;;;2.40;;
39948;SDS011;29070;48.102;-1.652;2023-01-19T12:03:03;7.95;;;3.40;;
39948;SDS011;29070;48.102;-1.652;2023-01-19T12:08:13;11.32;;;2.70;;
39948;SDS011;29070;48.102;-1.652;2023-01-19T12:13:21;7.90;;;2.78;;
39948;SDS011;29070;48.102;-1.652;2023-01-19T12:18:24;9.82;;;3.00;;
39948;SDS011;29070;48.102;-1.652;2023-01-19T12:29:14;6.00;;;2.10;;
39948;SDS011;29070;48.102;-1.652;2023-01-19T12:34:27;11.43;;;2.90;;
39948;SDS011;29070;48.102;-1.652;2023-01-19T12:39:34;8.75;;;2.58;;
39948;SDS011;29070;48.102;-1.652;2023-01-19T12:44:47;11.85;;;2.25;;
39948;SDS011;29070;48.102;-1.652;2023-01-19T12:49:56;4.90;;;2.20;;
39948;SDS011;29070;48.102;-1.652;2023-01-19T13:26:33;9.65;;;2.78;;
39948;SDS011;29070;48.102;-1.652;2023-01-19T13:31:38;9.27;;;2.65;;
39948;SDS011;29070;48.102;-1.652;2023-01-19T13:36:42;5.30;;;2.08;;
39948;SDS011;29070;48.102;-1.652;2023-01-19T13:41:44;7.88;;;2.17;;
39948;SDS011;29070;48.102;-1.652;2023-01-19T13:46:46;3.33;;;1.65;;
39948;SDS011;29070;48.102;-1.652;2023-01-19T13:52:32;6.45;;;2.03;;
39948;SDS011;29070;48.102;-1.652;2023-01-19T14:02:26;4.45;;;1.45;;
39948;SDS011;29070;48.102;-1.652;2023-01-19T14:07:26;3.87;;;1.93;;
39948;SDS011;29070;48.102;-1.652;2023-01-19T14:12:26;4.60;;;1.50;;
39948;SDS011;29070;48.102;-1.652;2023-01-19T14:17:28;6.18;;;1.98;;
39948;SDS011;29070;48.102;-1.652;2023-01-19T14:22:36;8.48;;;2.20;;
39948;SDS011;29070;48.102;-1.652;2023-01-19T14:27:37;7.78;;;2.95;;
39948;SDS011;29070;48.102;-1.652;2023-01-19T14:32:43;9.17;;;2.23;;
39948;SDS011;29070;48.102;-1.652;2023-01-19T14:37:46;10.80;;;4.93;;
39948;SDS011;29070;48.102;-1.652;2023-01-19T14:42:53;12.30;;;3.80;;
39948;SDS011;29070;48.102;-1.652;2023-01-19T14:48:13;12.43;;;4.57;;
39948;SDS011;29070;48.102;-1.652;2023-01-19T14:53:17;13.32;;;4.47;;
39948;SDS011;29070;48.102;-1.652;2023-01-19T14:58:25;8.25;;;4.85;;
39948;SDS011;29070;48.102;-1.652;2023-01-19T15:03:26;13.27;;;4.88;;
39948;SDS011;29070;48.102;-1.652;2023-01-19T15:08:31;12.27;;;5.43;;
39948;SDS011;29070;48.102;-1.652;2023-01-19T15:13:33;13.57;;;4.63;;
39948;SDS011;29070;48.102;-1.652;2023-01-19T15:18:33;12.43;;;5.17;;
39948;SDS011;29070;48.102;-1.652;2023-01-19T15:23:34;17.08;;;3.65;;
39948;SDS011;29070;48.102;-1.652;2023-01-19T15:28:34;20.97;;;6.07;;
39948;SDS011;29070;48.102;-1.652;2023-01-19T15:33:34;13.93;;;5.25;;
39948;SDS011;29070;48.102;-1.652;2023-01-19T15:38:35;46.70;;;18.38;;
39948;SDS011;29070;48.102;-1.652;2023-01-19T15:43:35;42.53;;;20.63;;
39948;SDS011;29070;48.102;-1.652;2023-01-19T15:48:35;21.40;;;8.73;;
39948;SDS011;29070;48.102;-1.652;2023-01-19T15:53:36;24.97;;;10.60;;
39948;SDS011;29070;48.102;-1.652;2023-01-19T15:58:36;26.23;;;10.93;;
39948;SDS011;29070;48.102;-1.652;2023-01-19T16:03:36;31.67;;;10.27;;
39948;SDS011;29070;48.102;-1.652;2023-01-19T16:08:37;22.70;;;8.88;;
39948;SDS011;29070;48.102;-1.652;2023-01-19T16:13:38;18.45;;;8.20;;
39948;SDS011;29070;48.102;-1.652;2023-01-19T16:18:39;29.73;;;12.25;;
39948;SDS011;29070;48.102;-1.652;2023-01-19T16:23:39;15.13;;;7.53;;
39948;SDS011;29070;48.102;-1.652;2023-01-19T16:28:39;16.55;;;8.77;;
39948;SDS011;29070;48.102;-1.652;2023-01-19T16:33:40;13.67;;;7.40;;
39948;SDS011;29070;48.102;-1.652;2023-01-19T16:38:40;20.75;;;6.85;;
39948;SDS011;29070;48.102;-1.652;2023-01-19T16:43:40;16.20;;;5.83;;
39948;SDS011;29070;48.102;-1.652;2023-01-19T16:48:41;11.97;;;4.60;;
39948;SDS011;29070;48.102;-1.652;2023-01-19T16:53:41;20.03;;;6.53;;
39948;SDS011;29070;48.102;-1.652;2023-01-19T16:58:41;13.57;;;5.35;;
39948;SDS011;29070;48.102;-1.652;2023-01-19T17:03:42;13.40;;;5.60;;
39948;SDS011;29070;48.102;-1.652;2023-01-19T17:08:43;14.32;;;6.63;;
39948;SDS011;29070;48.102;-1.652;2023-01-19T17:13:44;14.73;;;6.30;;
39948;SDS011;29070;48.102;-1.652;2023-01-19T17:18:44;63.95;;;22.73;;
39948;SDS011;29070;48.102;-1.652;2023-01-19T17:23:46;32.40;;;13.52;;
39948;SDS011;29070;48.102;-1.652;2023-01-19T17:28:47;28.25;;;10.35;;
39948;SDS011;29070;48.102;-1.652;2023-01-19T17:33:48;25.20;;;8.63;;
39948;SDS011;29070;48.102;-1.652;2023-01-19T17:38:53;42.90;;;15.52;;
39948;SDS011;29070;48.102;-1.652;2023-01-19T17:43:56;16.15;;;6.60;;
39948;SDS011;29070;48.102;-1.652;2023-01-19T17:49:01;16.55;;;8.20;;
39948;SDS011;29070;48.102;-1.652;2023-01-19T17:54:04;28.15;;;13.30;;
39948;SDS011;29070;48.102;-1.652;2023-01-19T17:59:04;28.83;;;13.50;;
39948;SDS011;29070;48.102;-1.652;2023-01-19T18:04:07;22.60;;;10.50;;
39948;SDS011;29070;48.102;-1.652;2023-01-19T18:09:08;23.08;;;9.85;;
39948;SDS011;29070;48.102;-1.652;2023-01-19T18:14:10;15.52;;;9.15;;
39948;SDS011;29070;48.102;-1.652;2023-01-19T18:19:11;53.30;;;17.27;;
39948;SDS011;29070;48.102;-1.652;2023-01-19T18:24:11;53.45;;;17.42;;
39948;SDS011;29070;48.102;-1.652;2023-01-19T18:29:11;17.10;;;9.37;;
39948;SDS011;29070;48.102;-1.652;2023-01-19T18:34:12;15.53;;;7.43;;
39948;SDS011;29070;48.102;-1.652;2023-01-19T18:39:12;16.77;;;7.00;;
39948;SDS011;29070;48.102;-1.652;2023-01-19T18:44:13;14.52;;;7.45;;
39948;SDS011;29070;48.102;-1.652;2023-01-19T18:49:13;13.15;;;6.85;;
39948;SDS011;29070;48.102;-1.652;2023-01-19T18:54:13;17.00;;;8.27;;
39948;SDS011;29070;48.102;-1.652;2023-01-19T18:59:14;19.92;;;7.07;;
39948;SDS011;29070;48.102;-1.652;2023-01-19T19:04:14;13.07;;;6.30;;
39948;SDS011;29070;48.102;-1.652;2023-01-19T19:09:14;14.10;;;6.30;;
39948;SDS011;29070;48.102;-1.652;2023-01-19T19:14:15;27.88;;;12.02;;
39948;SDS011;29070;48.102;-1.652;2023-01-19T19:19:15;19.73;;;10.97;;
39948;SDS011;29070;48.102;-1.652;2023-01-19T19:24:16;16.88;;;8.00;;
39948;SDS011;29070;48.102;-1.652;2023-01-19T19:29:16;16.00;;;8.07;;
39948;SDS011;29070;48.102;-1.652;2023-01-19T19:34:17;20.50;;;9.45;;
39948;SDS011;29070;48.102;-1.652;2023-01-19T19:39:17;26.48;;;11.90;;
39948;SDS011;29070;48.102;-1.652;2023-01-19T19:44:17;24.67;;;10.57;;
39948;SDS011;29070;48.102;-1.652;2023-01-19T19:49:18;20.13;;;9.20;;
39948;SDS011;29070;48.102;-1.652;2023-01-19T19:54:20;21.60;;;9.30;;
39948;SDS011;29070;48.102;-1.652;2023-01-19T19:59:20;18.80;;;8.23;;
39948;SDS011;29070;48.102;-1.652;2023-01-19T20:04:21;17.17;;;8.52;;
39948;SDS011;29070;48.102;-1.652;2023-01-19T20:09:22;11.32;;;6.10;;
39948;SDS011;29070;48.102;-1.652;2023-01-19T20:14:23;11.38;;;5.82;;
39948;SDS011;29070;48.102;-1.652;2023-01-19T20:19:23;10.95;;;5.22;;
39948;SDS011;29070;48.102;-1.652;2023-01-19T20:24:24;13.35;;;5.43;;
39948;SDS011;29070;48.102;-1.652;2023-01-19T20:29:24;11.37;;;5.80;;
39948;SDS011;29070;48.102;-1.652;2023-01-19T20:34:26;15.55;;;10.20;;
39948;SDS011;29070;48.102;-1.652;2023-01-19T20:39:28;10.63;;;6.55;;
39948;SDS011;29070;48.102;-1.652;2023-01-19T20:44:32;12.63;;;7.20;;
39948;SDS011;29070;48.102;-1.652;2023-01-19T20:49:32;13.03;;;6.00;;
39948;SDS011;29070;48.102;-1.652;2023-01-19T20:54:32;17.65;;;6.97;;
39948;SDS011;29070;48.102;-1.652;2023-01-19T20:59:33;10.03;;;6.13;;
39948;SDS011;29070;48.102;-1.652;2023-01-19T21:04:35;9.07;;;4.97;;
39948;SDS011;29070;48.102;-1.652;2023-01-19T21:09:36;9.40;;;4.90;;
39948;SDS011;29070;48.102;-1.652;2023-01-19T21:14:37;12.77;;;5.75;;
39948;SDS011;29070;48.102;-1.652;2023-01-19T21:19:39;12.23;;;5.78;;
39948;SDS011;29070;48.102;-1.652;2023-01-19T21:24:39;8.67;;;4.87;;
39948;SDS011;29070;48.102;-1.652;2023-01-19T21:29:39;12.73;;;5.43;;
39948;SDS011;29070;48.102;-1.652;2023-01-19T21:34:41;11.98;;;5.80;;
39948;SDS011;29070;48.102;-1.652;2023-01-19T21:39:42;12.32;;;5.95;;
39948;SDS011;29070;48.102;-1.652;2023-01-19T21:44:43;11.68;;;5.35;;
39948;SDS011;29070;48.102;-1.652;2023-01-19T21:49:43;20.87;;;7.03;;
39948;SDS011;29070;48.102;-1.652;2023-01-19T21:54:44;19.90;;;10.00;;
39948;SDS011;29070;48.102;-1.652;2023-01-19T21:59:44;18.03;;;7.73;;
39948;SDS011;29070;48.102;-1.652;2023-01-19T22:04:44;17.80;;;7.43;;
39948;SDS011;29070;48.102;-1.652;2023-01-19T22:09:45;22.35;;;9.05;;
39948;SDS011;29070;48.102;-1.652;2023-01-19T22:14:47;20.02;;;9.27;;
39948;SDS011;29070;48.102;-1.652;2023-01-19T22:19:47;17.67;;;8.23;;
39948;SDS011;29070;48.102;-1.652;2023-01-19T22:24:51;23.88;;;9.40;;
39948;SDS011;29070;48.102;-1.652;2023-01-19T22:29:51;24.80;;;9.20;;
39948;SDS011;29070;48.102;-1.652;2023-01-19T22:34:52;16.30;;;7.30;;
39948;SDS011;29070;48.102;-1.652;2023-01-19T22:39:52;12.77;;;6.73;;
39948;SDS011;29070;48.102;-1.652;2023-01-19T22:44:52;14.23;;;6.97;;
39948;SDS011;29070;48.102;-1.652;2023-01-19T22:49:53;11.77;;;6.63;;
39948;SDS011;29070;48.102;-1.652;2023-01-19T22:54:53;14.40;;;6.88;;
39948;SDS011;29070;48.102;-1.652;2023-01-19T22:59:56;12.70;;;5.57;;
39948;SDS011;29070;48.102;-1.652;2023-01-19T23:04:56;11.40;;;5.27;;
39948;SDS011;29070;48.102;-1.652;2023-01-19T23:09:57;14.68;;;6.10;;
39948;SDS011;29070;48.102;-1.652;2023-01-19T23:14:57;15.97;;;7.23;;
39948;SDS011;29070;48.102;-1.652;2023-01-19T23:19:58;21.57;;;7.97;;
39948;SDS011;29070;48.102;-1.652;2023-01-19T23:24:58;15.10;;;6.03;;
39948;SDS011;29070;48.102;-1.652;2023-01-19T23:29:58;15.75;;;6.07;;
39948;SDS011;29070;48.102;-1.652;2023-01-19T23:34:59;17.13;;;6.80;;
39948;SDS011;29070;48.102;-1.652;2023-01-19T23:39:59;16.02;;;6.43;;
39948;SDS011;29070;48.102;-1.652;2023-01-19T23:45:00;10.05;;;5.38;;
39948;SDS011;29070;48.102;-1.652;2023-01-19T23:50:03;152.70;;;48.90;;
39948;SDS011;29070;48.102;-1.652;2023-01-19T23:55:04;129.18;;;43.67;;
